Time;durP1;ratioP1;P1;durP2;ratioP2;P2;SDS_P1;SDS_P2;PMS_P1;PMS_P2;Temp;Humidity;BMP_temperature;BMP_pressure;BME280_temperature;BME280_humidity;BME280_pressure;Samples;Min_cycle;Max_cycle;Signal;HPM_P1;HPM_P2
2023/07/16 00:00:09;;;;;;;9.07;5.10;;;;;;;23.96;100.00;102166.88;5034928;28;20048;-72
2023/07/16 00:02:36;;;;;;;6.50;5.00;;;;;;;23.82;100.00;102176.25;5032549;28;20518;-73
2023/07/16 00:05:01;;;;;;;6.65;5.25;;;;;;;23.66;100.00;102240.25;5033475;28;20026;-72
2023/07/16 00:07:26;;;;;;;6.03;5.20;;;;;;;23.78;100.00;102278.66;5035036;28;20029;-71
2023/07/16 00:13:13;;;;;;;5.78;5.00;;;;;;;23.50;100.00;102361.34;5035059;28;20052;-73
2023/07/16 00:19:00;;;;;;;7.30;5.22;;;;;;;23.31;100.00;102441.81;5034860;28;20110;-73
2023/07/16 00:24:47;;;;;;;7.40;5.55;;;;;;;23.13;100.00;102521.28;5034414;28;20537;-73
2023/07/16 00:30:34;;;;;;;7.95;5.25;;;;;;;23.54;100.00;102639.13;5033463;28;20063;-75
2023/07/16 00:32:59;;;;;;;9.70;4.93;;;;;;;23.31;100.00;102617.53;5034148;28;20033;-73
2023/07/16 00:35:24;;;;;;;6.68;4.60;;;;;;;23.54;100.00;102687.66;5033897;28;20480;-72
2023/07/16 00:37:50;;;;;;;6.50;5.30;;;;;;;23.36;100.00;102646.78;5034336;28;20025;-72
2023/07/16 00:43:37;;;;;;;7.90;5.50;;;;;;;23.34;100.00;102678.03;5034326;28;20119;-73
2023/07/16 00:46:02;;;;;;;6.70;5.43;;;;;;;23.41;100.00;102739.25;5032750;28;20153;-72
2023/07/16 00:48:28;;;;;;;7.35;5.65;;;;;;;23.15;100.00;102783.44;5034188;28;20460;-72
2023/07/16 00:50:54;;;;;;;6.82;5.45;;;;;;;23.03;100.00;102773.50;5033942;28;20029;-72
2023/07/16 00:53:20;;;;;;;7.35;5.50;;;;;;;23.51;100.00;102875.66;5032083;28;20033;-72
2023/07/16 00:59:07;;;;;;;7.18;5.68;;;;;;;23.10;100.00;102837.28;5033977;28;20036;-73
2023/07/16 01:01:32;;;;;;;8.15;5.70;;;;;;;23.04;100.00;102853.06;5031627;28;20029;-72
2023/07/16 01:03:58;;;;;;;6.95;5.38;;;;;;;23.25;100.00;102935.44;5031944;28;20435;-72
2023/07/16 01:06:33;;;;;;;8.88;5.30;;;;;;;23.59;100.00;103003.56;5031926;28;20021;-73
2023/07/16 01:09:08;;;;;;;9.10;5.32;;;;;;;23.20;100.00;102990.13;5028880;28;20033;-70
2023/07/16 01:11:35;;;;;;;6.88;5.18;;;;;;;22.94;100.00;102979.72;5033614;28;20474;-73
2023/07/16 01:14:02;;;;;;;6.13;5.53;;;;;;;22.80;100.00;102966.31;5033138;28;20026;-74
2023/07/16 01:19:49;;;;;;;8.38;5.65;;;;;;;23.24;100.00;103045.41;5033836;28;20035;-72
2023/07/16 01:22:34;;;;;;;10.05;5.82;;;;;;;23.27;100.00;103066.94;5031765;28;20037;-74
2023/07/16 01:25:26;;;;;;;9.23;5.60;;;;;;;23.26;100.00;103060.06;5033172;28;20077;-72
2023/07/16 01:27:55;;;;;;;8.02;5.80;;;;;;;23.19;100.00;103060.28;5033382;28;20503;-74
2023/07/16 01:30:21;;;;;;;7.35;5.40;;;;;;;23.33;100.00;103081.53;5032975;28;20052;-72
2023/07/16 01:36:22;;;;;;;7.32;5.20;;;;;;;22.93;100.00;102980.63;5033706;28;20109;-74
2023/07/16 01:38:48;;;;;;;6.32;5.43;;;;;;;23.09;100.00;103000.03;5033536;28;20483;-74
2023/07/16 01:41:13;;;;;;;7.15;5.35;;;;;;;22.78;100.00;102975.06;5033324;28;20071;-74
2023/07/16 01:43:38;;;;;;;7.65;5.10;;;;;;;22.94;100.00;103018.66;5034044;28;20033;-76
2023/07/16 01:49:25;;;;;;;9.05;5.95;;;;;;;22.95;100.00;103084.41;5033807;28;20121;-74
2023/07/16 01:51:51;;;;;;;9.35;6.22;;;;;;;22.98;100.00;103113.72;5033078;28;20025;-74
2023/07/16 01:54:16;;;;;;;7.18;5.45;;;;;;;23.15;100.00;103139.19;5032010;28;20051;-75
2023/07/16 01:56:42;;;;;;;7.28;5.90;;;;;;;23.11;100.00;103109.00;5032300;28;20029;-74
2023/07/16 02:02:29;;;;;;;7.93;5.55;;;;;;;23.15;100.00;103123.63;5033306;28;20412;-74
2023/07/16 02:08:17;;;;;;;7.15;5.53;;;;;;;23.14;100.00;103132.28;5033079;28;20447;-75
2023/07/16 02:10:43;;;;;;;8.98;5.68;;;;;;;23.33;100.00;103130.88;5032817;28;20038;-74
2023/07/16 02:13:08;;;;;;;9.35;5.95;;;;;;;22.46;100.00;103021.81;5031715;28;20027;-73
2023/07/16 02:15:34;;;;;;;6.32;5.72;;;;;;;22.70;100.00;103079.06;5031333;28;20034;-73
2023/07/16 02:21:21;;;;;;;8.40;5.80;;;;;;;22.65;100.00;103091.31;5032596;28;20097;-73
2023/07/16 02:27:08;;;;;;;7.78;5.80;;;;;;;22.87;100.00;103146.94;5032674;28;20148;-73
2023/07/16 02:29:33;;;;;;;7.28;5.90;;;;;;;22.91;100.00;103246.31;5031155;28;20033;-74
2023/07/16 02:31:59;;;;;;;6.88;5.97;;;;;;;22.44;100.00;103204.25;5031573;28;20136;-74
2023/07/16 02:34:24;;;;;;;7.15;6.10;;;;;;;22.89;100.00;103264.56;5031083;28;20030;-75
2023/07/16 02:36:49;;;;;;;9.80;5.97;;;;;;;23.18;100.00;103318.28;5032813;28;20033;-75
2023/07/16 02:39:15;;;;;;;7.18;5.95;;;;;;;22.97;100.00;103298.09;5032392;28;20506;-73
2023/07/16 02:41:40;;;;;;;6.95;5.63;;;;;;;22.80;100.00;103279.53;5031008;28;20034;-74
2023/07/16 02:44:06;;;;;;;8.90;5.50;;;;;;;22.97;100.00;103344.81;5032484;28;20029;-73
2023/07/16 02:49:53;;;;;;;8.63;6.15;;;;;;;23.35;100.00;103549.06;5032310;28;20055;-73
2023/07/16 02:55:40;;;;;;;8.77;6.30;;;;;;;22.65;100.00;103477.97;5032317;28;20100;-73
2023/07/16 02:58:05;;;;;;;7.65;6.32;;;;;;;22.94;100.00;103534.41;5030281;28;20033;-73
2023/07/16 03:00:31;;;;;;;11.98;6.85;;;;;;;22.42;100.00;103441.25;5031859;28;20029;-74
2023/07/16 03:03:00;;;;;;;8.45;6.57;;;;;;;22.62;100.00;103438.25;5030682;28;20484;-73
2023/07/16 03:08:48;;;;;;;8.07;6.32;;;;;;;22.65;100.00;103483.16;5032296;28;20044;-73
2023/07/16 03:11:13;;;;;;;7.50;6.60;;;;;;;22.87;100.00;103525.06;5031783;28;20026;-72
2023/07/16 03:13:39;;;;;;;6.90;6.15;;;;;;;22.98;100.00;103549.03;5032055;28;20044;-72
2023/07/16 03:16:04;;;;;;;9.05;6.05;;;;;;;22.96;100.00;103543.00;5032155;28;20115;-72
2023/07/16 03:18:30;;;;;;;7.75;6.13;;;;;;;22.66;100.00;103492.63;5030527;28;20033;-72
2023/07/16 03:24:17;;;;;;;8.30;6.45;;;;;;;23.38;100.00;103614.81;5032014;28;20041;-72
2023/07/16 03:26:42;;;;;;;7.68;6.38;;;;;;;22.81;100.00;103527.78;5031377;28;20029;-72
2023/07/16 03:29:08;;;;;;;8.80;6.40;;;;;;;23.25;100.00;103600.38;5031484;28;20033;-73
2023/07/16 03:31:33;;;;;;;9.80;6.30;;;;;;;23.03;100.00;103574.03;5030667;28;20141;-72
2023/07/16 03:37:20;;;;;;;8.30;6.20;;;;;;;22.95;100.00;103567.28;5034025;28;20040;-75
2023/07/16 03:39:45;;;;;;;8.80;6.13;;;;;;;23.11;100.00;103587.69;5034061;28;20029;-74
2023/07/16 03:42:11;;;;;;;6.90;6.13;;;;;;;23.05;100.00;103553.22;5035338;28;20460;-73
2023/07/16 03:44:36;;;;;;;9.60;6.85;;;;;;;22.81;100.00;103525.19;5033957;28;20079;-72
2023/07/16 03:47:01;;;;;;;9.00;6.78;;;;;;;23.10;100.00;103587.69;5035080;28;20464;-72
2023/07/16 03:52:48;;;;;;;11.43;6.75;;;;;;;23.41;100.00;103651.13;5035329;28;20048;-73
2023/07/16 03:58:36;;;;;;;8.95;6.88;;;;;;;23.24;100.00;103506.00;5035028;28;20403;-74
2023/07/16 04:01:01;;;;;;;11.63;6.50;;;;;;;23.73;100.00;103546.41;5034668;28;20026;-75
2023/07/16 04:03:26;;;;;;;12.70;6.57;;;;;;;23.65;100.00;103517.16;5035392;28;20083;-74
2023/07/16 04:05:52;;;;;;;11.77;6.95;;;;;;;23.73;100.00;103530.81;5032619;28;20117;-72
2023/07/16 04:11:39;;;;;;;10.73;6.50;;;;;;;23.58;100.00;103456.66;5035005;28;20044;-74
2023/07/16 04:17:26;;;;;;;10.25;6.60;;;;;;;23.85;100.00;103515.72;5034782;28;20550;-73
2023/07/16 04:19:52;;;;;;;8.98;6.85;;;;;;;23.89;100.00;103495.69;5034328;28;20033;-73
2023/07/16 04:22:17;;;;;;;10.43;7.10;;;;;;;23.62;100.00;103453.09;5034560;28;20025;-74
2023/07/16 04:24:43;;;;;;;10.20;6.72;;;;;;;23.72;100.00;103487.47;5033935;28;20033;-74
2023/07/16 04:30:30;;;;;;;9.90;7.07;;;;;;;23.76;100.00;103474.38;5034133;28;20048;-73
2023/07/16 04:36:17;;;;;;;;;;;;;;;24.47;100.00;103532.22;5034707;28;20108;-74
2023/07/16 04:38:42;;;;;;;9.32;6.10;;;;;;;24.45;100.00;103487.16;5032114;28;20367;-74
2023/07/16 04:41:08;;;;;;;9.57;6.22;;;;;;;24.04;100.00;103394.75;5033090;28;20021;-74
2023/07/16 04:43:33;;;;;;;7.60;6.28;;;;;;;24.44;100.00;103441.22;5033701;28;20036;-73
2023/07/16 04:45:58;;;;;;;7.10;5.72;;;;;;;24.45;100.00;103398.69;5032946;28;20025;-73
2023/07/16 04:51:45;;;;;;;8.57;5.45;;;;;;;24.98;100.00;103410.00;5033908;28;20429;-73
2023/07/16 04:57:33;;;;;;;;;;;;;;;25.14;100.00;103355.63;5034188;28;20052;-72
2023/07/16 04:59:59;;;;;;;5.90;4.90;;;;;;;25.29;100.00;103337.72;5031553;28;20356;-72
2023/07/16 05:02:24;;;;;;;6.72;5.30;;;;;;;25.36;100.00;103297.50;5031923;28;20072;-73
2023/07/16 05:04:49;;;;;;;6.80;4.90;;;;;;;25.46;100.00;103244.16;5033287;28;20412;-74
2023/07/16 05:10:36;;;;;;;8.20;4.97;;;;;;;25.53;100.00;103038.84;5033564;28;20087;-73
2023/07/16 05:13:03;;;;;;;7.80;5.18;;;;;;;25.62;100.00;102989.75;5032968;28;20442;-73
2023/07/16 05:15:29;;;;;;;5.05;4.55;;;;;;;25.05;100.00;102867.13;5033737;28;20428;-72
2023/07/16 05:17:57;;;;;;;11.82;5.45;;;;;;;24.88;100.00;102800.09;5033437;28;20079;-74
2023/07/16 05:23:44;;;;;;;6.32;4.85;;;;;;;26.48;100.00;102891.09;5033134;28;20068;-73
2023/07/16 05:26:09;;;;;;;6.45;5.00;;;;;;;26.53;100.00;102866.47;5032066;28;20108;-73
2023/07/16 05:28:36;;;;;;;6.68;4.90;;;;;;;26.04;100.00;102796.63;5033100;28;20492;-73
2023/07/16 05:31:02;;;;;;;5.63;4.53;;;;;;;26.30;100.00;102796.25;5032899;28;20037;-73
2023/07/16 05:36:49;;;;;;;6.50;4.70;;;;;;;26.01;100.00;102712.44;5033067;28;20063;-71
2023/07/16 05:39:15;;;;;;;5.85;5.20;;;;;;;26.61;100.00;102748.56;5032817;28;20021;-70
2023/07/16 05:45:02;;;;;;;6.88;4.35;;;;;;;25.85;100.00;102633.25;5032961;28;20032;-71
2023/07/16 05:50:50;;;;;;;;;;;;;;;26.98;100.00;102685.69;5033200;28;20079;-74
2023/07/16 05:56:37;;;;;;;5.82;4.72;;;;;;;26.80;100.00;102629.22;5032985;28;20048;-73
2023/07/16 06:02:24;;;;;;;6.60;4.47;;;;;;;27.25;100.00;102608.44;5032946;28;20490;-75
2023/07/16 06:08:11;;;;;;;6.35;4.47;;;;;;;27.36;100.00;102545.13;5032889;28;20075;-73
2023/07/16 06:13:59;;;;;;;7.55;4.00;;;;;;;27.13;100.00;102387.00;5032450;28;20167;-75
2023/07/16 06:19:48;;;;;;;;;;;;;;;28.23;100.00;102431.75;5033291;28;20087;-72
2023/07/16 06:22:13;;;;;;;4.68;4.10;;;;;;;27.84;100.00;102308.59;5030787;28;19952;-73
2023/07/16 06:24:38;;;;;;;6.18;5.57;;;;;;;27.90;100.00;102318.69;5031690;28;20032;-81
2023/07/16 06:27:04;;;;;;;5.45;4.55;;;;;;;28.39;100.00;102311.19;5033366;28;20043;-82
2023/07/16 06:32:57;;;;;;;6.40;3.28;;;;;;;28.18;100.00;102054.31;5023531;28;20112;-80
2023/07/16 06:35:22;;;;;;;3.75;3.45;;;;;;;28.62;100.00;102070.44;5033358;28;20104;-83
2023/07/16 06:37:48;;;;;;;5.20;3.33;;;;;;;28.56;100.00;101989.69;5032853;28;20037;-81
2023/07/16 06:43:35;;;;;;;6.57;3.60;;;;;;;27.83;100.00;101878.78;5033890;28;20037;-81
2023/07/16 06:46:01;;;;;;;5.90;3.92;;;;;;;28.36;100.00;101914.31;5032975;28;20021;-80
2023/07/16 06:48:26;;;;;;;6.50;3.25;;;;;;;28.27;100.00;101815.50;5032733;28;20420;-76
2023/07/16 06:50:52;;;;;;;13.25;2.83;;;;;;;28.31;100.00;101730.56;5031654;28;20418;-77
2023/07/16 06:56:39;;;;;;;3.72;3.00;;;;;;;28.99;100.00;101704.44;5033864;28;20044;-79
2023/07/16 06:59:04;;;;;;;4.32;3.00;;;;;;;29.34;100.00;101720.03;5032379;28;20464;-77
2023/07/16 07:01:30;;;;;;;4.85;3.13;;;;;;;28.76;100.00;101638.09;5033559;28;20029;-79
2023/07/16 07:03:55;;;;;;;6.55;2.88;;;;;;;29.38;100.00;101685.63;5032134;28;20091;-79
2023/07/16 07:06:21;;;;;;;5.40;3.22;;;;;;;29.62;100.00;101643.47;5032726;28;20549;-79
2023/07/16 07:12:09;;;;;;;4.97;3.55;;;;;;;29.81;100.00;101677.81;5037165;28;20039;-83
2023/07/16 07:14:34;;;;;;;3.88;3.47;;;;;;;29.56;100.00;101751.50;5037529;28;20092;-79
2023/07/16 07:17:00;;;;;;;3.30;3.00;;;;;;;30.30;100.00;101735.84;5037105;28;20017;-82
2023/07/16 07:19:25;;;;;;;8.73;3.30;;;;;;;30.72;100.00;101742.75;5037596;28;20108;-79
2023/07/16 07:25:12;;;;;;;8.82;4.53;;;;;;;30.98;100.00;101729.25;5036948;28;20040;-79
2023/07/16 07:27:38;;;;;;;6.35;4.00;;;;;;;30.86;100.00;101719.78;5036249;28;20021;-79
2023/07/16 07:30:03;;;;;;;4.82;3.25;;;;;;;31.30;100.00;101724.66;5036551;28;20395;-81
2023/07/16 07:32:29;;;;;;;4.82;3.25;;;;;;;30.70;100.00;101631.69;5035902;28;20046;-80
2023/07/16 07:34:54;;;;;;;8.35;3.85;;;;;;;31.71;100.00;101710.53;5036820;28;20044;-76
2023/07/16 07:40:43;;;;;;;5.50;3.63;;;;;;;30.68;100.00;101657.28;5036635;28;20491;-79
2023/07/16 07:46:30;;;;;;;7.50;3.80;;;;;;;30.98;100.00;101661.72;5037139;28;20087;-83
2023/07/16 07:48:55;;;;;;;4.60;3.45;;;;;;;30.86;100.00;101581.34;5035947;28;20037;-83
2023/07/16 07:51:20;;;;;;;4.75;3.30;;;;;;;30.90;100.00;101490.75;5035606;28;20021;-81
2023/07/16 07:53:46;;;;;;;6.30;3.90;;;;;;;31.67;100.00;101559.16;5036833;28;20026;-85
2023/07/16 07:59:33;;;;;;;7.57;3.70;;;;;;;31.65;100.00;101458.47;5036501;28;20037;-82
2023/07/16 08:01:58;;;;;;;4.25;3.75;;;;;;;31.94;100.00;101420.59;5036203;28;20017;-79
2023/07/16 08:04:25;;;;;;;6.15;3.83;;;;;;;32.32;100.00;101378.25;5035235;28;20030;-74
2023/07/16 08:06:51;;;;;;;7.68;3.85;;;;;;;31.86;100.00;101338.03;5035682;28;20476;-79
2023/07/16 08:09:17;;;;;;;4.25;3.20;;;;;;;31.84;100.00;101253.13;5035956;28;20479;-74
2023/07/16 08:15:07;;;;;;;5.40;3.30;;;;;;;31.43;100.00;101167.66;5036234;28;20035;-74
2023/07/16 08:17:32;;;;;;;6.05;3.10;;;;;;;32.20;100.00;101171.41;5034651;28;20029;-77
2023/07/16 08:19:58;;;;;;;5.00;3.45;;;;;;;32.31;100.00;101121.09;5035230;28;20519;-77
2023/07/16 08:22:24;;;;;;;7.10;3.88;;;;;;;32.98;100.00;101051.78;5033855;28;20068;-75
2023/07/16 08:28:12;;;;;;;;;;;;;;;32.75;100.00;101037.53;5036805;28;20047;-76
2023/07/16 08:37:33;;;;;;;4.05;3.20;;;;;;;33.01;100.00;100979.47;5036048;28;20174;-77
2023/07/16 08:39:58;;;;;;;7.60;3.35;;;;;;;32.98;100.00;100925.25;5033554;28;20033;-76
2023/07/16 08:42:24;;;;;;;8.65;3.50;;;;;;;32.65;100.00;100857.66;5034053;28;20492;-78
2023/07/16 08:44:50;;;;;;;5.55;3.28;;;;;;;33.02;100.00;100944.22;5035454;28;20017;-74
2023/07/16 08:47:17;;;;;;;6.45;3.80;;;;;;;33.11;100.00;100945.84;5035272;28;20032;-77
2023/07/16 08:53:07;;;;;;;5.13;3.50;;;;;;;33.47;100.00;100915.50;5035378;28;20129;-79
2023/07/16 08:55:34;;;;;;;5.78;3.53;;;;;;;33.66;100.00;100930.16;5034026;28;20045;-77
2023/07/16 08:58:01;;;;;;;9.20;3.50;;;;;;;33.96;100.00;100930.25;5034579;28;20029;-78
2023/07/16 09:00:27;;;;;;;5.70;3.70;;;;;;;33.36;100.00;100920.31;5035410;28;20045;-76
2023/07/16 09:02:53;;;;;;;7.80;3.85;;;;;;;32.87;100.00;100908.91;5047200;28;20099;-77
2023/07/16 09:05:22;;;;;;;7.57;3.85;;;;;;;33.34;100.00;100924.94;5042608;28;20033;-76
2023/07/16 09:07:49;;;;;;;9.25;3.85;;;;;;;33.26;100.00;100910.75;5035055;28;20025;-75
2023/07/16 09:10:14;;;;;;;6.57;3.60;;;;;;;33.52;100.00;100863.06;5034106;28;20025;-77
2023/07/16 09:12:44;;;;;;;4.30;3.60;;;;;;;33.48;100.00;100860.97;5033159;28;20031;-76
2023/07/16 09:15:11;;;;;;;4.22;3.60;;;;;;;33.26;100.00;100899.34;5035131;28;20033;-78
2023/07/16 09:21:02;;;;;;;5.97;3.58;;;;;;;33.66;100.00;100883.50;5034606;28;20503;-77
2023/07/16 09:26:58;;;;;;;6.75;3.88;;;;;;;32.81;100.00;100810.22;5034383;28;20045;-77
2023/07/16 09:29:26;;;;;;;6.95;3.80;;;;;;;34.26;100.00;100888.22;5033371;28;20025;-78
2023/07/16 09:31:57;;;;;;;5.72;3.65;;;;;;;33.52;100.00;100847.25;5034008;28;20021;-77
2023/07/16 09:34:23;;;;;;;5.57;3.63;;;;;;;33.65;100.00;100820.31;5034379;28;20042;-76
2023/07/16 09:36:49;;;;;;;5.50;3.63;;;;;;;33.61;100.00;100859.44;5032102;28;20095;-78
2023/07/16 09:39:21;;;;;;;5.80;3.90;;;;;;;33.75;100.00;100790.09;5033766;28;20021;-77
2023/07/16 09:41:50;;;;;;;6.32;3.90;;;;;;;34.60;100.00;100865.75;5032816;28;20025;-77
2023/07/16 09:44:17;;;;;;;5.05;3.60;;;;;;;34.57;100.00;100801.84;5034388;28;20115;-77
2023/07/16 09:46:43;;;;;;;7.65;3.97;;;;;;;33.79;100.00;100854.75;5034439;28;20025;-80
2023/07/16 09:49:10;;;;;;;5.93;3.70;;;;;;;34.05;100.00;100863.22;5033808;28;20048;-80
2023/07/16 09:55:04;;;;;;;6.60;3.53;;;;;;;34.31;100.00;100814.56;5034364;28;20036;-78
2023/07/16 09:57:37;;;;;;;6.75;4.05;;;;;;;33.50;100.00;100780.63;5034221;28;20029;-76
2023/07/16 10:00:07;;;;;;;6.57;3.70;;;;;;;34.61;100.00;100856.81;5034008;28;20115;-78
2023/07/16 10:06:18;;;;;;;7.60;4.20;;;;;;;35.35;100.00;100836.69;5034287;28;20043;-78
2023/07/16 10:08:52;;;;;;;10.40;3.83;;;;;;;35.26;100.00;100843.06;5033654;28;20080;-75
2023/07/16 10:11:19;;;;;;;6.30;4.18;;;;;;;35.43;100.00;100816.25;5034218;28;20026;-77
2023/07/16 10:13:50;;;;;;;5.80;3.92;;;;;;;35.53;100.00;100800.94;5033179;28;20033;-77
2023/07/16 10:16:21;;;;;;;8.05;4.10;;;;;;;34.57;100.00;100829.09;5032229;28;20022;-78
2023/07/16 10:18:53;;;;;;;8.73;4.03;;;;;;;34.85;100.00;100776.47;5034009;28;20013;-79
2023/07/16 10:24:40;;;;;;;4.00;3.60;;;;;;;34.75;100.00;100771.44;5033770;28;20099;-78
2023/07/16 10:27:06;;;;;;;9.15;3.58;;;;;;;35.81;100.00;100832.84;5032427;28;20025;-79
2023/07/16 10:29:31;;;;;;;3.88;3.58;;;;;;;35.21;100.00;100808.38;5033591;28;20025;-81
2023/07/16 10:31:58;;;;;;;6.97;3.60;;;;;;;35.89;100.00;100830.09;5033567;28;20029;-79
2023/07/16 10:34:26;;;;;;;8.35;3.92;;;;;;;35.27;100.00;100758.22;5032595;28;20041;-78
2023/07/16 10:36:51;;;;;;;8.10;4.40;;;;;;;35.22;100.00;100760.56;5032110;28;20083;-77
2023/07/16 10:39:17;;;;;;;5.28;3.65;;;;;;;34.93;100.00;100797.56;5032584;28;20042;-79
2023/07/16 10:41:43;;;;;;;5.28;3.45;;;;;;;34.79;100.00;100785.94;5033128;28;20028;-77
2023/07/16 10:47:29;;;;;;;4.53;4.13;;;;;;;35.95;100.00;100817.97;5038154;28;20127;-78
2023/07/16 10:49:55;;;;;;;7.07;4.30;;;;;;;35.57;100.00;100794.28;5037480;28;20056;-79
2023/07/16 10:52:23;;;;;;;8.18;4.05;;;;;;;34.92;100.00;100774.75;5037441;28;20036;-80
2023/07/16 10:54:58;;;;;;;9.70;4.28;;;;;;;34.43;100.00;100725.97;5037943;28;20029;-79
2023/07/16 11:00:45;;;;;;;5.68;4.25;;;;;;;35.45;100.00;100744.63;5037666;28;20083;-79
2023/07/16 11:06:33;;;;;;;5.22;3.63;;;;;;;34.88;100.00;100716.09;5037894;28;20044;-77
2023/07/16 11:09:08;;;;;;;4.75;3.90;;;;;;;35.21;100.00;100690.16;5037538;28;20029;-78
2023/07/16 11:11:34;;;;;;;6.50;3.80;;;;;;;35.03;100.00;100702.94;5037253;28;20171;-76
2023/07/16 11:14:00;;;;;;;7.25;3.92;;;;;;;36.22;100.00;100738.56;5036265;28;20053;-78
2023/07/16 11:16:25;;;;;;;4.75;4.05;;;;;;;34.96;100.00;100694.06;5036831;28;20458;-77
2023/07/16 11:18:51;;;;;;;7.75;4.28;;;;;;;35.60;100.00;100743.59;5037241;28;20032;-78
2023/07/16 11:21:19;;;;;;;4.70;3.83;;;;;;;35.89;100.00;100757.75;5035074;28;20089;-79
2023/07/16 11:23:45;;;;;;;9.73;3.83;;;;;;;35.28;100.00;100703.47;5035689;28;20034;-78
2023/07/16 11:29:36;;;;;;;4.15;3.58;;;;;;;35.93;100.00;100769.66;5036728;28;20168;-77
2023/07/16 11:35:23;;;;;;;7.50;3.97;;;;;;;35.59;100.00;100699.59;5026012;28;20061;-80
2023/07/16 11:37:48;;;;;;;5.53;4.47;;;;;;;34.63;100.00;100679.53;5035775;28;20029;-79
2023/07/16 11:40:19;;;;;;;5.75;4.15;;;;;;;35.04;100.00;100725.75;5035902;28;20460;-80
2023/07/16 11:42:45;;;;;;;6.45;4.35;;;;;;;35.61;100.00;100687.00;5036754;28;20029;-81
2023/07/16 11:48:32;;;;;;;4.85;3.80;;;;;;;36.84;100.00;100703.38;5036705;28;20041;-77
2023/07/16 11:54:19;;;;;;;7.60;4.50;;;;;;;36.42;100.00;100691.88;5036941;28;20114;-80
2023/07/16 11:56:44;;;;;;;5.85;4.10;;;;;;;35.35;100.00;100657.56;5035282;28;20268;-77
2023/07/16 11:59:10;;;;;;;5.15;4.60;;;;;;;35.00;100.00;100702.47;5035314;28;20021;-75
2023/07/16 12:01:35;;;;;;;8.60;4.25;;;;;;;35.84;100.00;100721.25;5034855;28;20036;-75
2023/07/16 12:07:34;;;;;;;5.10;4.10;;;;;;;35.44;100.00;100655.59;5036321;28;20036;-79
2023/07/16 12:10:00;;;;;;;6.50;3.88;;;;;;;35.26;100.00;100653.34;5036070;28;20029;-76
2023/07/16 12:12:25;;;;;;;7.20;5.00;;;;;;;35.62;100.00;100666.63;5036237;28;20033;-75
2023/07/16 12:14:51;;;;;;;4.57;4.15;;;;;;;36.37;100.00;100693.44;5035745;28;20032;-75
2023/07/16 12:20:39;;;;;;;6.28;4.60;;;;;;;34.67;100.00;100644.63;5036170;28;20095;-76
2023/07/16 12:26:27;;;;;;;7.30;4.90;;;;;;;35.09;100.00;100688.97;5038179;28;20036;-78
2023/07/16 12:32:14;;;;;;;7.70;4.90;;;;;;;35.48;100.00;100707.19;5036232;28;20036;-78
2023/07/16 12:34:40;;;;;;;6.85;4.60;;;;;;;35.71;100.00;100653.09;5034987;28;20037;-78
2023/07/16 12:40:30;;;;;;;7.40;4.68;;;;;;;35.60;100.00;100706.53;5036408;28;20502;-76
2023/07/16 12:42:55;;;;;;;5.75;4.40;;;;;;;34.39;100.00;100633.00;5035143;28;20061;-78
2023/07/16 12:45:21;;;;;;;10.30;4.90;;;;;;;35.62;100.00;100701.88;5035913;28;20060;-80
2023/07/16 12:47:46;;;;;;;5.38;4.50;;;;;;;35.84;100.00;100696.56;5034134;28;20080;-78
2023/07/16 12:50:11;;;;;;;6.97;5.00;;;;;;;36.17;100.00;100706.50;5033598;28;20035;-78
2023/07/16 12:52:37;;;;;;;5.13;4.60;;;;;;;35.61;100.00;100686.16;5034399;28;20087;-77
2023/07/16 12:55:03;;;;;;;6.57;5.07;;;;;;;36.51;100.00;100708.44;5035141;28;20112;-76
2023/07/16 12:57:28;;;;;;;7.60;5.35;;;;;;;35.90;100.00;100643.69;5033945;28;20028;-78
2023/07/16 13:03:16;;;;;;;7.35;5.10;;;;;;;35.16;100.00;100674.00;5035353;28;20040;-77
2023/07/16 13:05:43;;;;;;;5.85;5.30;;;;;;;34.43;100.00;100625.56;5033257;28;20030;-76
2023/07/16 13:08:09;;;;;;;5.85;4.93;;;;;;;36.51;100.00;100689.88;5034474;28;20079;-77
2023/07/16 13:10:34;;;;;;;5.35;4.32;;;;;;;36.73;100.00;100690.63;5035177;28;20029;-78
2023/07/16 13:13:00;;;;;;;6.97;4.75;;;;;;;36.00;100.00;100669.88;5034630;28;20022;-79
2023/07/16 13:15:25;;;;;;;8.77;4.88;;;;;;;36.19;100.00;100658.63;5033660;28;20377;-80
2023/07/16 13:17:51;;;;;;;6.45;4.68;;;;;;;36.05;100.00;100656.91;5033979;28;20029;-80
2023/07/16 13:20:18;;;;;;;7.47;5.03;;;;;;;35.94;100.00;100617.66;5033750;28;20021;-78
2023/07/16 13:26:05;;;;;;;8.55;4.78;;;;;;;36.10;100.00;100663.25;5034946;28;20040;-81
2023/07/16 13:31:52;;;;;;;5.35;4.82;;;;;;;36.44;100.00;100670.47;5035032;28;20164;-78
2023/07/16 13:34:18;;;;;;;6.15;5.10;;;;;;;35.66;100.00;100612.28;5034020;28;20124;-80
2023/07/16 13:36:43;;;;;;;7.97;4.75;;;;;;;35.68;100.00;100604.97;5033478;28;20021;-79
2023/07/16 13:39:09;;;;;;;6.78;4.82;;;;;;;35.53;100.00;100615.66;5034091;28;20480;-77
2023/07/16 13:41:34;;;;;;;5.35;4.68;;;;;;;35.65;100.00;100645.91;5034319;28;20022;-80
2023/07/16 13:47:22;;;;;;;7.72;5.10;;;;;;;36.03;100.00;100661.56;5034392;28;20067;-81
2023/07/16 13:53:09;;;;;;;7.28;5.15;;;;;;;35.37;100.00;100577.97;5034125;28;20087;-79
2023/07/16 13:58:56;;;;;;;7.40;4.60;;;;;;;35.67;100.00;100576.88;5034534;28;20094;-79
2023/07/16 14:01:22;;;;;;;8.23;4.80;;;;;;;36.13;100.00;100635.56;5032747;28;20029;-80
2023/07/16 14:03:48;;;;;;;6.47;4.70;;;;;;;35.50;100.00;100536.59;5032807;28;20525;-80
2023/07/16 14:06:13;;;;;;;6.32;5.05;;;;;;;36.37;100.00;100632.47;5033842;28;20104;-78
2023/07/16 14:12:00;;;;;;;5.80;4.93;;;;;;;35.89;100.00;100575.84;5034027;28;20510;-78
2023/07/16 14:17:47;;;;;;;6.28;5.20;;;;;;;36.36;100.00;100628.19;5034137;28;20056;-78
2023/07/16 14:20:13;;;;;;;6.88;4.65;;;;;;;36.25;100.00;100589.78;5033133;28;20108;-77
2023/07/16 14:22:38;;;;;;;8.05;4.90;;;;;;;35.38;100.00;100580.41;5033195;28;20029;-76
2023/07/16 14:25:04;;;;;;;5.15;4.65;;;;;;;35.28;100.00;100534.94;5034182;28;20539;-79
2023/07/16 14:27:31;;;;;;;9.15;5.00;;;;;;;35.47;100.00;100618.22;5032081;28;20032;-80
2023/07/16 14:33:18;;;;;;;5.20;4.63;;;;;;;35.86;100.00;100608.00;5034498;28;20036;-77
2023/07/16 14:35:43;;;;;;;6.30;4.70;;;;;;;35.68;100.00;100555.50;5033772;28;20041;-76
2023/07/16 14:38:09;;;;;;;6.97;5.07;;;;;;;35.49;100.00;100555.31;5034310;28;20383;-79
2023/07/16 14:40:34;;;;;;;8.07;4.90;;;;;;;35.42;100.00;100557.88;5032222;28;20048;-76
2023/07/16 14:43:00;;;;;;;6.25;5.20;;;;;;;35.32;100.00;100572.44;5031999;28;20037;-78
2023/07/16 14:48:47;;;;;;;6.85;4.60;;;;;;;35.52;100.00;100574.28;5033461;28;20084;-77
2023/07/16 14:51:12;;;;;;;6.63;4.80;;;;;;;35.33;100.00;100537.84;5033586;28;20025;-77
2023/07/16 14:57:00;;;;;;;6.63;4.60;;;;;;;36.54;100.00;100608.16;5033603;28;20028;-79
2023/07/16 14:59:26;;;;;;;6.43;5.07;;;;;;;35.74;100.00;100554.72;5032933;28;20036;-76
2023/07/16 15:05:13;;;;;;;5.13;4.63;;;;;;;35.79;100.00;100540.09;5033819;28;20415;-78
2023/07/16 15:07:38;;;;;;;8.32;4.72;;;;;;;36.18;100.00;100591.56;5033195;28;20021;-79
2023/07/16 15:10:05;;;;;;;6.70;5.00;;;;;;;35.99;100.00;100591.44;5032278;28;20029;-79
2023/07/16 15:12:30;;;;;;;5.40;4.90;;;;;;;35.91;100.00;100544.69;5032637;28;20025;-77
2023/07/16 15:14:56;;;;;;;5.53;4.75;;;;;;;35.95;100.00;100591.00;5032271;28;20034;-76
2023/07/16 15:20:43;;;;;;;4.97;4.45;;;;;;;35.89;100.00;100581.13;5033445;28;20087;-77
2023/07/16 15:23:08;;;;;;;7.55;4.88;;;;;;;35.52;100.00;100533.75;5031426;28;20030;-75
2023/07/16 15:25:34;;;;;;;6.15;4.70;;;;;;;35.94;100.00;100589.34;5032107;28;20112;-77
2023/07/16 15:27:59;;;;;;;5.72;4.90;;;;;;;35.70;100.00;100534.94;5032591;28;20033;-75
2023/07/16 15:33:46;;;;;;;9.73;4.90;;;;;;;35.97;100.00;100588.16;5037208;28;20044;-76
2023/07/16 15:36:13;;;;;;;8.55;4.88;;;;;;;35.88;100.00;100549.53;5035821;28;20046;-76
2023/07/16 15:38:38;;;;;;;7.90;4.95;;;;;;;35.39;100.00;100545.03;5036486;28;20033;-77
2023/07/16 15:41:04;;;;;;;10.07;5.07;;;;;;;35.49;100.00;100542.09;5036344;28;20420;-76